Hlavní strana
METAR-TAF:

METAR-TAF

Letiště :

Las Vegas, Nevada, Spojené státy americké

zeměpisná šířka: 36-04-44N, zeměpisná délka: 115-09-19W, výška: 663 m

Aktuální stav počasí

Zpráva byla vytvořena před 1 hodinou a 7 minutami, v 04:56 UTC
Západojihozápadní vítr 3 kt
Teplota 8°C
Vlhkost vzduchu 46%
Tlak 1024 hPa
Viditelnost: 16.1 km
Polojasno ve výšce 25000 ft

METAR: KLAS 230456Z 24003KT 10SM SCT250 08/M03 A3025 RMK AO2 SLP247 T00781028

Čas: 22:03 (06:03 UTC)

Předpověď počasí

Zpráva byla vytvořena před 43 minutami, v 05:20 UTC
Předpověď platná od 23 v 06 UTC do 24 v 12 UTC
Západní vítr 5 kt
Viditelnost: 10 km
Polojasno ve výšce 25000 ft
Od 23 v 1900 UTC
Severovýchodní vítr 5 kt
Viditelnost: 10 km
Jasno
Od 24 v 0300 UTC
Jihozápadní vítr 5 kt
Viditelnost: 10 km
Skoro jasno ve výšce 25000 ft

TAF: KLAS 230520Z 2306/2412 26005KT P6SM SCT250 FM231900 05005KT P6SM SKC FM240300 23005KT P6SM FEW250

Stav a předpovědi počasí z více než 4 000 letišť (zprávy METAR a TAF).

Červené a žluté tečky na mapě představují dostupné meteorologické stanice.

Když kurzor umístíte na tečku, zobrazí se název stanice.

Pak kliknutím zobrazíte stav a předpověď počasí.

Chcete-li změnit mapu, kliknutím na zelené tlačítko se znaménkem +mapu přiblížíte, kliknutím na zelené tlačítko se znaménkem – mapu oddálíte a kliknutím na zelené šipky přejdete na sousední mapy.


METAR-TAF: